Ivins, Utah
Current Conditions -  °F | °C
As of 4:35 AM on Tuesday 21 Oct 2014 (Local Time) from KSGU Reporting Station
Clear Clear  
Wind Chill: 66°   Ceiling: Unl
Heat Index: 66°   Visibility: 10mi
Dew Point: 39°   Wind: 7mph
Humidity: 37%   Direction: 150°SSE
Pressure: 29.93"   Gusts: NA
Location:  37.17°N, 113.68°W
Report Text: KSGU 211035Z AUTO 15006KT 10SM CLR 19/04 A2993 RMK AO1
Loading
Personal Weather Stations






























Interactive Weather Map
Tropical Storm Tracking
New forecast layout! Learn more

10-Day Weather Forecast

Advertisements
Track Severe Weather on mobile